Time;durP1;ratioP1;P1;durP2;ratioP2;P2;SDS_P1;SDS_P2;PMS_P1;PMS_P2;Temp;Humidity;BMP_temperature;BMP_pressure;BME280_temperature;BME280_humidity;BME280_pressure;Samples;Min_cycle;Max_cycle;Signal;HPM_P1;HPM_P2
2022/06/13 00:00:31;;;;;;;9.20;6.53;;;;;;;15.58;93.71;93391.47;5028805;28;20046;-38
2022/06/13 00:02:57;;;;;;;17.52;6.38;;;;;;;15.55;93.84;93401.72;5028538;28;20025;-38
2022/06/13 00:05:23;;;;;;;6.88;6.00;;;;;;;15.64;92.51;93391.91;5028176;28;20037;-39
2022/06/13 00:07:49;;;;;;;8.75;5.95;;;;;;;15.59;92.19;93388.09;5028920;28;20030;-38
2022/06/13 00:10:14;;;;;;;26.52;7.88;;;;;;;15.48;92.73;93388.69;5029044;28;20025;-38
2022/06/13 00:12:41;;;;;;;7.70;6.13;;;;;;;15.46;93.46;93373.88;5030919;28;20486;-38
2022/06/13 00:15:09;;;;;;;12.30;6.85;;;;;;;15.50;93.16;93394.41;5048884;28;20040;-39
2022/06/13 00:17:34;;;;;;;8.40;6.68;;;;;;;15.41;93.61;93386.00;5048450;28;20065;-38
2022/06/13 00:20:00;;;;;;;11.85;6.70;;;;;;;15.43;93.92;93377.78;5048798;28;20056;-38
2022/06/13 00:22:26;;;;;;;9.57;7.43;;;;;;;15.50;93.21;93376.97;5048436;28;20636;-38
2022/06/13 00:24:51;;;;;;;6.93;6.10;;;;;;;15.42;93.30;93390.25;5048750;28;20029;-38
2022/06/13 00:27:17;;;;;;;9.23;5.68;;;;;;;15.45;92.83;93387.06;5048410;28;20497;-38
2022/06/13 00:29:44;;;;;;;7.95;5.65;;;;;;;15.34;93.26;93389.63;5048368;28;20021;-38
2022/06/13 00:32:10;;;;;;;14.60;6.53;;;;;;;15.19;93.92;93374.66;5048380;28;20040;-38
2022/06/13 00:34:35;;;;;;;17.02;7.38;;;;;;;15.44;93.80;93391.13;5048539;28;20021;-38
2022/06/13 00:37:00;;;;;;;13.82;6.30;;;;;;;15.48;93.61;93394.25;5048303;28;20029;-39
2022/06/13 00:39:26;;;;;;;15.98;6.38;;;;;;;15.51;92.86;93386.75;5048372;28;20021;-38
2022/06/13 00:41:51;;;;;;;9.05;6.00;;;;;;;15.56;92.35;93397.63;5048243;28;20025;-38
2022/06/13 00:44:45;;;;;;;9.20;5.28;;;;;;;15.62;91.17;93386.94;5038481;28;20025;-38
2022/06/13 00:47:11;;;;;;;10.77;6.10;;;;;;;15.39;92.46;93369.16;5026173;28;20049;-38
2022/06/13 00:49:41;;;;;;;5.38;4.88;;;;;;;15.51;92.55;93386.75;5028086;28;20018;-39
2022/06/13 00:52:14;;;;;;;7.80;5.55;;;;;;;15.53;93.01;93393.22;5028509;28;20022;-39
2022/06/13 00:54:42;;;;;;;16.27;7.53;;;;;;;15.48;93.21;93385.91;5027613;28;20425;-38
2022/06/13 00:57:13;;;;;;;7.60;6.75;;;;;;;15.58;93.86;93388.69;5026831;28;20026;-38
2022/06/13 00:59:39;;;;;;;10.73;6.75;;;;;;;15.50;94.10;93388.09;5026682;28;20430;-39
2022/06/13 01:02:06;;;;;;;20.10;8.07;;;;;;;15.40;93.95;93374.13;5026836;28;20033;-38
2022/06/13 01:04:32;;;;;;;6.68;5.72;;;;;;;15.40;94.04;93385.25;5027125;28;20021;-38
2022/06/13 01:06:59;;;;;;;8.05;5.93;;;;;;;15.42;93.88;93381.91;5027881;28;20021;-38
2022/06/13 01:12:09;;;;;;;9.43;5.30;;;;;;;15.55;92.50;93373.88;5028107;28;20044;-38
2022/06/13 01:14:52;;;;;;;13.40;5.07;;;;;;;15.57;92.38;93368.47;5026650;28;20021;-38
2022/06/13 01:17:37;;;;;;;10.20;5.40;;;;;;;15.58;92.74;93377.56;5027790;28;20494;-38
2022/06/13 01:20:24;;;;;;;11.13;5.57;;;;;;;15.55;92.76;93376.66;5027863;28;20018;-38
2022/06/13 01:23:12;;;;;;;5.53;4.57;;;;;;;15.50;92.50;93371.41;5026860;28;20063;-38
2022/06/13 01:25:44;;;;;;;8.95;5.28;;;;;;;15.43;92.64;93375.78;5027954;28;20108;-39
2022/06/13 01:28:31;;;;;;;6.55;5.68;;;;;;;15.51;92.48;93386.75;5027715;28;20033;-38
2022/06/13 01:31:20;;;;;;;9.38;6.00;;;;;;;15.48;92.40;93391.47;5027657;28;20086;-38
2022/06/13 01:34:07;;;;;;;10.88;5.70;;;;;;;15.46;92.48;93388.53;5027887;28;20542;-38
2022/06/13 01:36:40;;;;;;;6.50;5.47;;;;;;;15.48;92.10;93385.91;5027520;28;20029;-38
2022/06/13 01:39:36;;;;;;;6.60;5.72;;;;;;;15.45;92.61;93386.31;5026685;28;20034;-38
2022/06/13 01:42:39;;;;;;;7.47;5.85;;;;;;;15.43;93.11;93386.91;5027429;28;20039;-38
2022/06/13 01:45:24;;;;;;;11.18;6.40;;;;;;;15.45;93.25;93377.97;5027441;28;20040;-38
2022/06/13 01:47:55;;;;;;;6.82;5.82;;;;;;;15.46;92.99;93380.19;5027338;28;20205;-39
2022/06/13 01:50:31;;;;;;;10.32;5.97;;;;;;;15.26;93.87;93373.06;5027280;28;20174;-38
2022/06/13 01:53:06;;;;;;;9.05;6.38;;;;;;;15.34;94.40;93372.94;5024774;28;20521;-38
2022/06/13 01:55:41;;;;;;;7.38;6.10;;;;;;;15.35;94.71;93371.63;5027577;28;20029;-38
2022/06/13 01:58:12;;;;;;;6.68;5.90;;;;;;;15.32;94.00;93373.53;5042824;28;20025;-38
2022/06/13 02:00:39;;;;;;;9.98;6.20;;;;;;;15.36;93.42;93375.88;5047091;28;20165;-38
2022/06/13 02:03:20;;;;;;;9.88;8.50;;;;;;;15.24;94.57;93380.53;5045987;28;20081;-38
2022/06/13 02:06:14;;;;;;;9.60;8.43;;;;;;;15.25;94.71;93382.72;5047689;28;20112;-39
2022/06/13 02:08:50;;;;;;;13.23;8.73;;;;;;;15.23;95.69;93392.94;5041806;28;20065;-39
2022/06/13 02:11:21;;;;;;;10.20;8.23;;;;;;;15.25;95.83;93390.31;5049731;28;20052;-38
2022/06/13 02:13:54;;;;;;;10.90;7.28;;;;;;;15.28;95.52;93383.59;5050128;28;20086;-38
2022/06/13 02:16:26;;;;;;;11.80;8.23;;;;;;;15.30;95.48;93383.75;5049302;28;20569;-38
2022/06/13 02:19:03;;;;;;;10.15;7.82;;;;;;;15.33;94.74;93383.34;5050440;28;20063;-38
2022/06/13 02:21:40;;;;;;;11.23;7.22;;;;;;;15.36;94.45;93381.44;5050409;28;20524;-39
2022/06/13 02:24:08;;;;;;;9.00;7.50;;;;;;;15.31;94.63;93382.47;5049205;28;20029;-38
2022/06/13 02:26:35;;;;;;;10.67;6.87;;;;;;;15.24;95.42;93383.31;5049199;28;20056;-39
2022/06/13 02:29:11;;;;;;;7.22;6.47;;;;;;;15.38;94.72;93379.53;5048966;28;20032;-38
2022/06/13 02:31:40;;;;;;;23.42;7.47;;;;;;;15.38;94.73;93387.13;5050477;28;20416;-38
2022/06/13 02:34:30;;;;;;;6.70;5.75;;;;;;;15.27;95.25;93385.66;5049336;28;20033;-39
2022/06/13 02:37:01;;;;;;;8.38;5.57;;;;;;;15.35;94.48;93380.72;5039311;28;20497;-38
2022/06/13 02:39:35;;;;;;;11.68;6.28;;;;;;;15.38;94.51;93381.56;5030257;28;20029;-38
2022/06/13 02:42:14;;;;;;;6.95;5.50;;;;;;;15.41;94.55;93372.81;5029029;28;20038;-39
2022/06/13 02:44:43;;;;;;;7.13;5.63;;;;;;;15.31;95.29;93385.25;5030197;28;20043;-38
2022/06/13 02:47:37;;;;;;;5.80;4.90;;;;;;;15.41;94.80;93383.94;5030028;28;20032;-38
2022/06/13 02:50:13;;;;;;;6.85;5.68;;;;;;;15.29;95.17;93388.59;5028688;28;20049;-39
2022/06/13 02:52:44;;;;;;;7.57;5.38;;;;;;;15.18;96.44;93389.88;5030092;28;20065;-39
2022/06/13 02:55:12;;;;;;;9.98;5.25;;;;;;;15.29;96.42;93385.09;5030284;28;20426;-39
2022/06/13 02:57:40;;;;;;;6.15;4.80;;;;;;;15.34;95.69;93390.34;5030158;28;20036;-38
2022/06/13 03:00:08;;;;;;;8.98;6.03;;;;;;;15.34;96.00;93395.94;5029744;28;20435;-38
2022/06/13 03:03:07;;;;;;;6.13;5.50;;;;;;;15.32;96.15;93390.22;5028746;28;20044;-39
2022/06/13 03:05:54;;;;;;;8.35;5.32;;;;;;;15.34;95.95;93398.72;4998893;28;20037;-39
2022/06/13 03:08:35;;;;;;;6.28;5.20;;;;;;;15.40;95.05;93398.44;5029720;28;20044;-38
2022/06/13 03:11:09;;;;;;;7.57;6.13;;;;;;;15.32;95.12;93406.16;5028922;28;20049;-39
2022/06/13 03:13:54;;;;;;;9.55;5.32;;;;;;;15.38;94.13;93401.78;5038179;28;20062;-38
2022/06/13 03:16:38;;;;;;;9.73;5.53;;;;;;;15.27;94.79;93398.84;5034890;28;20182;-39
2022/06/13 03:19:10;;;;;;;12.65;6.00;;;;;;;15.26;95.18;93403.66;5049845;28;20414;-39
2022/06/13 03:21:38;;;;;;;7.68;5.95;;;;;;;15.26;95.58;93400.16;5049455;28;20052;-39
2022/06/13 03:24:15;;;;;;;7.15;5.32;;;;;;;15.29;94.89;93401.78;5048562;28;20410;-39
2022/06/13 03:26:47;;;;;;;7.13;6.40;;;;;;;15.32;94.96;93408.94;5048547;28;20070;-39
2022/06/13 03:29:29;;;;;;;5.20;4.70;;;;;;;15.30;95.06;93408.78;5049396;28;20440;-39
2022/06/13 03:32:05;;;;;;;7.20;5.90;;;;;;;15.24;95.44;93416.69;5049012;28;20032;-38
2022/06/13 03:34:39;;;;;;;12.43;5.65;;;;;;;15.33;95.47;93413.94;5028197;28;20029;-38
2022/06/13 03:37:12;;;;;;;8.18;6.18;;;;;;;15.38;95.18;93421.25;5028521;28;20547;-38
2022/06/13 03:39:42;;;;;;;12.10;7.05;;;;;;;15.38;94.27;93409.41;5028070;28;20667;-39
2022/06/13 03:42:14;;;;;;;9.60;8.00;;;;;;;15.36;94.52;93409.97;5027899;28;20025;-39
2022/06/13 03:44:45;;;;;;;12.50;8.48;;;;;;;15.41;94.89;93416.59;5029482;28;20033;-38
2022/06/13 03:47:28;;;;;;;10.63;8.80;;;;;;;15.37;95.35;93413.50;5029191;28;20558;-39
2022/06/13 03:50:10;;;;;;;16.98;9.75;;;;;;;15.40;95.77;93413.06;5028084;28;20040;-38
2022/06/13 03:52:39;;;;;;;14.73;8.43;;;;;;;15.49;94.59;93412.41;5027966;28;20033;-38
2022/06/13 03:55:21;;;;;;;10.55;8.05;;;;;;;15.45;95.27;93406.53;5027873;28;20034;-38
2022/06/13 03:57:52;;;;;;;11.18;8.82;;;;;;;15.50;95.69;93419.44;5028141;28;20225;-38
2022/06/13 04:00:45;;;;;;;10.38;7.85;;;;;;;15.61;94.67;93420.94;5028848;28;20041;-38
2022/06/13 04:03:11;;;;;;;10.75;9.00;;;;;;;15.66;94.35;93426.19;5024721;28;20045;-38
2022/06/13 04:05:54;;;;;;;9.18;7.85;;;;;;;15.71;93.90;93422.41;5028862;28;20018;-39
2022/06/13 04:08:19;;;;;;;9.77;7.85;;;;;;;15.70;94.28;93423.00;5028915;28;20177;-38
2022/06/13 04:11:01;;;;;;;11.50;8.48;;;;;;;15.80;94.26;93421.69;5027537;28;20037;-38
2022/06/13 04:13:40;;;;;;;58.80;11.65;;;;;;;15.76;94.55;93415.09;5036162;28;20103;-38
2022/06/13 04:16:08;;;;;;;10.82;8.55;;;;;;;15.81;95.57;93419.63;5047492;28;20029;-38
2022/06/13 04:19:12;;;;;;;73.63;13.52;;;;;;;15.88;96.49;93416.72;5048895;28;20098;-39
2022/06/13 04:21:51;;;;;;;8.90;7.38;;;;;;;16.07;96.08;93415.28;4987066;28;20034;-38
2022/06/13 04:24:35;;;;;;;12.02;7.90;;;;;;;16.02;95.58;93396.81;5041606;28;20185;-38
2022/06/13 04:27:08;;;;;;;7.35;6.30;;;;;;;16.32;92.91;93424.06;5048519;28;20032;-38
2022/06/13 04:29:55;;;;;;;8.88;7.20;;;;;;;16.36;93.38;93419.53;5034227;28;20036;-39
2022/06/13 04:32:25;;;;;;;14.55;8.85;;;;;;;16.40;93.32;93419.81;5027332;28;20510;-39
2022/06/13 04:34:51;;;;;;;11.82;9.25;;;;;;;16.43;93.75;93420.69;5028800;28;20109;-39
2022/06/13 04:37:19;;;;;;;13.98;9.40;;;;;;;16.52;93.12;93417.19;5027169;28;20032;-39
2022/06/13 04:39:47;;;;;;;10.95;8.82;;;;;;;16.58;92.22;93423.94;5028439;28;20467;-39
2022/06/13 04:42:14;;;;;;;12.20;8.95;;;;;;;16.64;92.38;93421.56;5027229;28;20029;-39
2022/06/13 04:44:41;;;;;;;17.10;12.50;;;;;;;16.71;92.35;93419.22;5027403;28;20455;-39
2022/06/13 04:47:07;;;;;;;10.63;9.52;;;;;;;16.78;91.52;93418.31;5027125;28;20022;-39
2022/06/13 04:49:42;;;;;;;12.98;11.07;;;;;;;16.79;90.36;93425.34;5027029;28;20082;-39
2022/06/13 04:52:15;;;;;;;10.70;8.68;;;;;;;16.83;91.11;93431.94;5026505;28;20495;-39
2022/06/13 04:54:51;;;;;;;16.35;13.57;;;;;;;16.85;91.18;93429.31;5028428;28;20031;-39
2022/06/13 04:57:17;;;;;;;10.98;9.38;;;;;;;16.83;90.75;93431.94;5028349;28;20033;-40
2022/06/13 04:59:43;;;;;;;10.60;8.63;;;;;;;16.85;90.63;93436.97;5026743;28;20049;-39
2022/06/13 05:02:15;;;;;;;7.75;6.95;;;;;;;16.87;89.21;93428.72;5028048;28;20516;-39
2022/06/13 05:04:40;;;;;;;8.68;7.22;;;;;;;16.89;89.99;93429.59;5026858;28;20021;-39
2022/06/13 05:07:19;;;;;;;13.38;7.40;;;;;;;16.70;88.63;93403.81;5027080;28;20028;-39
2022/06/13 05:09:54;;;;;;;10.18;7.03;;;;;;;16.79;89.24;93422.56;5027912;28;20051;-39
2022/06/13 05:12:39;;;;;;;7.95;6.75;;;;;;;16.87;89.30;93431.53;5026658;28;20054;-40
2022/06/13 05:15:09;;;;;;;7.28;6.57;;;;;;;16.89;90.09;93429.59;5027062;28;20056;-39
2022/06/13 05:17:44;;;;;;;8.63;6.90;;;;;;;16.97;89.12;93432.22;5028107;28;20048;-39
2022/06/13 05:20:25;;;;;;;16.48;6.85;;;;;;;16.95;89.17;93437.66;5026675;28;20034;-39
2022/06/13 05:23:15;;;;;;;10.45;7.68;;;;;;;17.06;90.54;93442.63;5028022;28;20029;-39
2022/06/13 05:25:45;;;;;;;10.60;7.28;;;;;;;17.21;89.89;93443.03;5038095;28;20033;-39
2022/06/13 05:28:13;;;;;;;9.52;7.28;;;;;;;17.37;89.61;93437.81;5047578;28;20576;-39
2022/06/13 05:30:41;;;;;;;7.22;6.20;;;;;;;17.42;87.88;93448.66;5047649;28;20031;-39
2022/06/13 05:33:10;;;;;;;7.97;6.88;;;;;;;17.54;88.31;93437.63;5047739;28;20029;-39
2022/06/13 05:35:35;;;;;;;12.48;7.00;;;;;;;17.69;87.35;93431.69;5046262;28;20578;-39
2022/06/13 05:38:02;;;;;;;7.78;6.28;;;;;;;17.77;85.42;93434.25;5046095;28;20124;-39
2022/06/13 05:40:28;;;;;;;8.48;6.57;;;;;;;17.84;83.42;93434.09;5045677;28;20031;-39
2022/06/13 05:42:54;;;;;;;6.55;5.85;;;;;;;17.69;82.67;93437.25;5047358;28;20085;-39
2022/06/13 05:45:22;;;;;;;7.10;6.22;;;;;;;17.65;83.71;93444.63;5047499;28;20033;-39
2022/06/13 05:47:48;;;;;;;9.20;6.10;;;;;;;17.57;85.01;93450.38;5046419;28;20025;-39
2022/06/13 05:50:19;;;;;;;10.38;6.40;;;;;;;17.55;86.20;93441.88;5047448;28;20498;-39
2022/06/13 05:52:45;;;;;;;7.22;6.38;;;;;;;17.50;86.54;93440.13;5047189;28;20104;-39
2022/06/13 05:55:11;;;;;;;6.63;5.93;;;;;;;17.49;87.67;93433.06;5047104;28;20108;-39
2022/06/13 05:57:38;;;;;;;7.25;6.25;;;;;;;17.63;87.41;93442.41;5035836;28;20383;-39
2022/06/13 06:00:06;;;;;;;9.65;6.47;;;;;;;17.74;87.48;93441.78;5027113;28;20046;-39
2022/06/13 06:02:32;;;;;;;;;;;;;;;17.85;85.62;93434.81;5028037;28;20045;-39
2022/06/13 06:04:58;;;;;;;11.27;5.97;;;;;;;17.91;86.03;93441.53;5027324;28;20475;-39
2022/06/13 06:07:23;;;;;;;11.18;6.03;;;;;;;17.85;87.32;93409.66;5027108;28;20037;-39
2022/06/13 06:09:48;;;;;;;6.78;5.65;;;;;;;18.05;86.73;93428.50;5027051;28;20040;-39
2022/06/13 06:12:14;;;;;;;12.82;5.10;;;;;;;18.16;86.76;93436.22;5026003;28;20037;-39
2022/06/13 06:14:39;;;;;;;7.47;4.70;;;;;;;18.24;85.67;93440.88;5045589;28;20447;-39
2022/06/13 06:17:05;;;;;;;6.35;5.65;;;;;;;18.37;84.99;93431.94;5046944;28;20032;-39
2022/06/13 06:19:30;;;;;;;7.88;6.45;;;;;;;18.47;85.94;93435.44;5046857;28;20028;-39
2022/06/13 06:21:56;;;;;;;6.78;5.80;;;;;;;18.52;85.32;93435.06;5036238;28;20033;-40
2022/06/13 06:24:21;;;;;;;10.57;6.32;;;;;;;18.53;85.88;93433.75;5026928;28;20030;-39
2022/06/13 06:26:46;;;;;;;8.63;5.13;;;;;;;18.55;86.40;93439.47;5026967;28;20502;-40
2022/06/13 06:29:12;;;;;;;6.25;5.47;;;;;;;18.71;85.13;93437.69;5026785;28;20033;-40
2022/06/13 06:31:38;;;;;;;5.72;5.13;;;;;;;19.00;85.38;93436.69;5027141;28;20057;-40
2022/06/13 06:34:03;;;;;;;6.10;4.97;;;;;;;19.34;84.82;93431.19;5027154;28;20033;-40
2022/06/13 06:36:29;;;;;;;4.65;4.10;;;;;;;19.68;82.26;93436.06;5027026;28;20534;-40
2022/06/13 06:38:55;;;;;;;4.90;3.45;;;;;;;19.97;78.71;93429.34;5026909;28;20554;-40
2022/06/13 06:41:21;;;;;;;4.20;3.80;;;;;;;20.18;77.29;93437.63;5026699;28;20029;-40
2022/06/13 06:43:46;;;;;;;10.50;3.53;;;;;;;20.44;75.94;93438.44;5026667;28;20061;-39
2022/06/13 06:46:12;;;;;;;6.47;3.42;;;;;;;20.64;75.94;93431.88;5026651;28;20040;-40
2022/06/13 06:48:38;;;;;;;4.88;3.17;;;;;;;20.86;73.30;93424.72;5026601;28;20030;-40
2022/06/13 06:51:10;;;;;;;14.07;4.35;;;;;;;21.14;72.25;93429.09;5026987;28;20585;-40
2022/06/13 07:02:10;;;;;;;3.10;2.45;;;;;;;21.68;68.82;93427.75;5070793;28;20475;-40
2022/06/13 07:04:35;;;;;;;9.27;3.50;;;;;;;21.64;69.11;93433.16;5037529;28;20038;-40
2022/06/13 07:07:01;;;;;;;5.38;2.80;;;;;;;21.61;66.42;93434.44;5028600;28;20124;-40
2022/06/13 07:09:27;;;;;;;3.95;2.85;;;;;;;21.80;63.92;93445.28;5029647;28;20061;-40
2022/06/13 07:11:55;;;;;;;2.85;2.60;;;;;;;21.84;65.09;93442.69;5030066;28;20029;-40
2022/06/13 07:14:22;;;;;;;4.90;2.60;;;;;;;21.87;63.57;93439.34;5045378;28;20107;-40
2022/06/13 07:16:48;;;;;;;4.40;2.55;;;;;;;21.88;64.67;93435.19;5049825;28;20104;-40
2022/06/13 07:19:14;;;;;;;3.08;2.78;;;;;;;21.89;64.42;93441.56;5029076;28;20077;-40
2022/06/13 07:21:39;;;;;;;6.68;2.63;;;;;;;21.92;63.49;93437.47;5029523;28;20064;-40
2022/06/13 07:24:05;;;;;;;4.57;2.67;;;;;;;21.93;64.53;93433.34;5029847;28;20102;-40
2022/06/13 07:26:31;;;;;;;7.97;2.83;;;;;;;21.95;64.48;93439.06;5029645;28;20179;-40
2022/06/13 07:28:56;;;;;;;4.88;2.78;;;;;;;22.18;64.09;93447.28;5029432;28;20029;-40
2022/06/13 07:31:41;;;;;;;5.47;2.97;;;;;;;22.82;62.48;93441.38;5029704;28;20030;-40
2022/06/13 07:34:12;;;;;;;2.45;2.25;;;;;;;23.14;59.01;93456.25;5029772;28;20414;-40
2022/06/13 07:36:38;;;;;;;3.13;2.65;;;;;;;23.25;58.42;93455.38;5029302;28;20014;-40
2022/06/13 07:39:03;;;;;;;3.92;2.38;;;;;;;23.57;57.86;93456.19;5029425;28;20104;-41
2022/06/13 07:41:29;;;;;;;3.97;2.40;;;;;;;23.81;55.98;93452.38;5029523;28;20025;-40
2022/06/13 07:43:55;;;;;;;4.28;2.53;;;;;;;24.12;57.05;93448.84;5027367;28;20025;-40
2022/06/13 07:46:25;;;;;;;3.97;2.72;;;;;;;24.41;54.58;93456.44;5027536;28;20022;-40
2022/06/13 07:48:50;;;;;;;5.85;2.67;;;;;;;24.87;55.15;93455.59;5029073;28;20527;-40
2022/06/13 07:51:18;;;;;;;2.30;2.10;;;;;;;25.79;51.80;93447.25;5029385;28;20060;-41
2022/06/13 07:53:43;;;;;;;2.72;2.53;;;;;;;26.65;47.26;93448.94;5029412;28;20098;-41
2022/06/13 07:56:14;;;;;;;2.63;2.42;;;;;;;27.34;48.67;93460.47;5029025;28;20065;-41
2022/06/13 07:58:41;;;;;;;2.70;2.47;;;;;;;28.33;43.83;93456.44;5027845;28;20116;-40
2022/06/13 08:01:07;;;;;;;8.00;2.50;;;;;;;29.01;42.40;93448.31;5027205;28;20091;-38
2022/06/13 08:03:34;;;;;;;2.53;2.20;;;;;;;29.43;40.73;93446.56;5027475;28;20033;-38
2022/06/13 08:06:00;;;;;;;2.50;2.25;;;;;;;29.21;43.41;93457.41;5028016;28;20040;-38
2022/06/13 08:08:26;;;;;;;3.05;1.77;;;;;;;29.41;40.70;93455.03;5029107;28;20077;-40
2022/06/13 08:10:52;;;;;;;3.90;1.92;;;;;;;29.64;40.32;93448.47;5029089;28;20025;-39
2022/06/13 08:13:19;;;;;;;2.92;2.17;;;;;;;29.72;40.20;93451.50;5033272;28;20033;-40
2022/06/13 08:15:45;;;;;;;3.70;2.38;;;;;;;30.09;39.60;93449.47;5029033;28;20030;-40
2022/06/13 08:18:13;;;;;;;2.55;2.35;;;;;;;30.47;38.90;93456.72;5028996;28;20505;-40
2022/06/13 08:20:39;;;;;;;2.10;1.90;;;;;;;29.44;38.66;93447.28;5028633;28;20021;-38
2022/06/13 08:23:08;;;;;;;3.83;2.00;;;;;;;28.19;41.00;93449.63;5028460;28;20494;-40
2022/06/13 08:25:35;;;;;;;2.97;2.20;;;;;;;27.80;43.90;93447.75;5028291;28;20033;-40
2022/06/13 08:28:01;;;;;;;2.00;1.75;;;;;;;28.80;40.58;93460.56;5028579;28;20033;-40
2022/06/13 08:30:50;;;;;;;2.72;2.05;;;;;;;29.06;40.11;93464.09;5028711;28;20036;-40
2022/06/13 08:33:17;;;;;;;10.27;2.70;;;;;;;28.73;41.60;93467.47;5028433;28;20109;-40
2022/06/13 08:35:43;;;;;;;3.70;1.90;;;;;;;29.17;39.98;93454.47;5028413;28;20090;-40
2022/06/13 08:38:08;;;;;;;4.72;1.70;;;;;;;29.26;39.40;93461.78;5028649;28;20034;-38
2022/06/13 08:40:59;;;;;;;2.05;1.80;;;;;;;28.68;39.85;93458.13;5028738;28;20410;-38
2022/06/13 08:44:03;;;;;;;10.52;2.58;;;;;;;28.07;41.61;93455.69;5028704;28;20029;-40
2022/06/13 08:46:48;;;;;;;2.45;2.25;;;;;;;27.98;41.71;93459.66;5026737;28;20044;-40
2022/06/13 08:49:17;;;;;;;1.73;1.63;;;;;;;28.35;40.51;93465.00;5027210;28;20112;-40
2022/06/13 08:51:42;;;;;;;4.07;2.20;;;;;;;28.42;41.59;93463.78;5028546;28;20033;-41
2022/06/13 08:54:09;;;;;;;5.03;2.53;;;;;;;28.39;43.56;93461.56;5028133;28;20419;-40
2022/06/13 08:56:36;;;;;;;3.30;2.53;;;;;;;28.29;44.45;93456.31;5027248;28;20041;-40
2022/06/13 08:59:34;;;;;;;3.90;2.78;;;;;;;28.29;42.83;93456.31;5027960;28;20143;-40
2022/06/13 09:02:29;;;;;;;3.47;3.17;;;;;;;28.08;42.06;93462.09;5021746;28;20045;-40
2022/06/13 09:05:07;;;;;;;5.35;2.65;;;;;;;27.50;42.81;93455.34;5025095;28;20037;-40
2022/06/13 09:07:41;;;;;;;3.83;3.33;;;;;;;27.97;42.57;93458.22;5026508;28;20475;-40
2022/06/13 09:10:25;;;;;;;4.45;2.67;;;;;;;28.39;42.49;93456.59;5031905;28;20037;-38
2022/06/13 09:13:15;;;;;;;9.32;5.78;;;;;;;28.40;43.35;93463.72;5047738;28;20048;-38
2022/06/13 09:16:03;;;;;;;4.65;3.30;;;;;;;29.29;41.48;93457.59;5046975;28;20033;-38
2022/06/13 09:19:00;;;;;;;4.53;3.30;;;;;;;28.96;41.89;93464.56;5048018;28;20539;-38
2022/06/13 09:21:52;;;;;;;3.28;2.97;;;;;;;28.91;40.74;93459.44;5047728;28;20412;-40
2022/06/13 09:24:29;;;;;;;4.47;3.42;;;;;;;30.40;38.76;93445.88;5033191;28;20411;-41
2022/06/13 09:27:08;;;;;;;7.28;3.00;;;;;;;29.71;37.25;93449.34;5046481;28;20029;-40
2022/06/13 09:29:40;;;;;;;3.47;3.17;;;;;;;30.06;37.50;93448.00;5046535;28;20116;-40
2022/06/13 09:32:12;;;;;;;3.25;2.95;;;;;;;30.13;38.78;93455.97;5046396;28;20036;-40
2022/06/13 09:34:44;;;;;;;4.53;3.42;;;;;;;29.56;37.74;93451.13;5046612;28;20158;-40
2022/06/13 09:37:16;;;;;;;3.78;3.17;;;;;;;28.98;39.38;93455.34;5047451;28;20028;-40
2022/06/13 09:39:42;;;;;;;4.65;3.10;;;;;;;28.24;42.53;93445.53;5046239;28;20077;-40
2022/06/13 09:42:14;;;;;;;5.40;3.42;;;;;;;27.56;44.00;93461.19;5047302;28;20029;-40
2022/06/13 09:44:57;;;;;;;4.05;3.55;;;;;;;26.96;43.30;93455.00;5047238;28;20029;-40
2022/06/13 09:47:41;;;;;;;3.85;3.33;;;;;;;26.64;45.00;93448.22;5047240;28;20045;-40
2022/06/13 09:50:20;;;;;;;4.32;3.15;;;;;;;26.21;45.17;93448.84;5046460;28;20021;-40
2022/06/13 09:52:48;;;;;;;3.60;3.30;;;;;;;25.87;48.00;93449.66;5047275;28;20088;-40
2022/06/13 09:55:19;;;;;;;5.05;3.55;;;;;;;25.66;47.18;93444.63;5047109;28;20032;-39
2022/06/13 09:58:06;;;;;;;4.47;3.35;;;;;;;25.31;47.01;93453.84;5034798;28;20506;-40
2022/06/13 10:00:53;;;;;;;4.38;3.83;;;;;;;24.99;47.73;93447.63;5027134;28;20042;-40
2022/06/13 10:03:40;;;;;;;5.35;3.25;;;;;;;24.89;48.81;93443.66;5027333;28;20657;-40
2022/06/13 10:06:13;;;;;;;14.10;4.43;;;;;;;24.73;50.47;93446.53;5030543;28;20021;-40
2022/06/13 10:08:38;;;;;;;3.95;3.58;;;;;;;24.77;49.78;93447.44;5044991;28;20037;-40
2022/06/13 10:11:21;;;;;;;9.05;3.58;;;;;;;24.71;52.22;93443.63;5047219;28;20031;-39
2022/06/13 10:14:06;;;;;;;5.50;3.85;;;;;;;24.68;50.22;93442.81;5045431;28;20148;-40
2022/06/13 10:17:00;;;;;;;4.50;3.60;;;;;;;24.80;49.94;93432.03;5046949;28;20073;-40
2022/06/13 10:19:49;;;;;;;5.15;3.17;;;;;;;24.77;51.19;93444.63;5045968;28;20021;-40
2022/06/13 10:22:20;;;;;;;4.30;3.90;;;;;;;24.75;51.09;93435.34;5047227;28;20460;-39
2022/06/13 10:25:20;;;;;;;5.45;3.97;;;;;;;24.78;50.79;93442.50;5046253;28;20025;-40
2022/06/13 10:27:54;;;;;;;4.60;3.30;;;;;;;24.88;51.27;93433.72;5049028;28;20028;-40
2022/06/13 10:30:20;;;;;;;4.90;4.40;;;;;;;24.98;52.46;93437.69;5050389;28;20101;-40
2022/06/13 10:32:56;;;;;;;4.13;3.80;;;;;;;25.08;52.18;93434.56;5050535;28;20505;-39
2022/06/13 10:35:39;;;;;;;4.40;4.00;;;;;;;25.11;53.76;93428.31;5050358;28;20029;-40
2022/06/13 10:38:13;;;;;;;6.13;4.28;;;;;;;25.16;52.83;93432.78;5050505;28;20044;-40
2022/06/13 10:40:39;;;;;;;15.15;5.20;;;;;;;25.18;52.61;93432.84;5049889;28;20081;-40
2022/06/13 10:43:05;;;;;;;6.18;5.57;;;;;;;25.18;53.25;93430.03;5049633;28;20025;-40
2022/06/13 10:45:33;;;;;;;11.45;5.55;;;;;;;25.12;54.00;93426.94;5048849;28;20024;-40
2022/06/13 10:48:02;;;;;;;19.23;4.82;;;;;;;25.00;52.15;93426.47;5050318;28;20379;-40
2022/06/13 10:50:35;;;;;;;7.03;3.80;;;;;;;24.85;51.38;93421.63;5050088;28;20459;-40
2022/06/13 10:53:09;;;;;;;4.22;3.83;;;;;;;24.76;52.64;93420.56;5048796;28;20500;-40
2022/06/13 10:55:40;;;;;;;9.77;8.35;;;;;;;24.60;53.08;93424.81;5048640;28;20028;-40
2022/06/13 10:58:16;;;;;;;11.52;8.10;;;;;;;24.51;54.04;93417.34;5032698;28;20025;-40
2022/06/13 11:01:05;;;;;;;7.13;6.43;;;;;;;24.41;53.86;93399.97;5028758;28;20025;-40
2022/06/13 11:03:30;;;;;;;7.07;5.03;;;;;;;24.49;53.64;93420.09;5041950;28;20085;-40
2022/06/13 11:06:03;;;;;;;10.63;7.40;;;;;;;24.45;54.02;93415.00;5050034;28;20025;-40
2022/06/13 11:08:29;;;;;;;7.50;5.68;;;;;;;24.46;55.30;93418.53;5048830;28;20021;-40
2022/06/13 11:11:00;;;;;;;6.60;5.00;;;;;;;24.49;54.54;93414.44;5048354;28;20082;-40
2022/06/13 11:13:32;;;;;;;10.00;5.72;;;;;;;24.49;55.44;93409.53;5039009;28;20026;-40
2022/06/13 11:22:40;;;;;;;7.65;4.03;;;;;;;24.50;57.02;93399.69;5028441;28;20056;-40
2022/06/13 11:25:22;;;;;;;6.93;3.92;;;;;;;24.57;56.73;93411.97;5027793;28;20162;-40
2022/06/13 11:28:10;;;;;;;7.63;3.78;;;;;;;24.67;56.64;93398.25;5029258;28;20082;-40
2022/06/13 11:30:46;;;;;;;3.85;3.53;;;;;;;24.67;54.07;93393.34;5028147;28;20128;-40
2022/06/13 11:33:28;;;;;;;4.90;3.70;;;;;;;24.72;55.36;93389.31;5028555;28;20179;-41
2022/06/13 11:36:16;;;;;;;4.65;3.75;;;;;;;24.84;55.79;93389.09;5029395;28;20029;-40
2022/06/13 11:39:02;;;;;;;4.10;3.80;;;;;;;25.07;56.05;93388.63;5027510;28;20078;-40
2022/06/13 11:41:44;;;;;;;4.47;3.33;;;;;;;25.27;53.93;93380.22;5029347;28;20494;-40
2022/06/13 11:44:18;;;;;;;30.15;6.45;;;;;;;25.41;53.42;93367.31;5028199;28;20033;-40
2022/06/13 11:47:04;;;;;;;5.82;4.50;;;;;;;25.79;53.29;93370.16;5027347;28;20434;-40
2022/06/13 11:49:44;;;;;;;4.05;3.65;;;;;;;26.06;52.73;93372.53;5025186;28;20426;-40
2022/06/13 11:52:09;;;;;;;9.10;4.00;;;;;;;26.30;51.52;93370.59;5025994;28;20053;-40
2022/06/13 11:54:39;;;;;;;5.20;4.55;;;;;;;26.41;48.66;93372.38;5026639;28;20501;-40
2022/06/13 11:57:14;;;;;;;4.60;3.78;;;;;;;26.44;50.77;93368.25;5033651;28;20025;-40
2022/06/13 11:59:57;;;;;;;4.93;3.67;;;;;;;26.52;49.13;93368.50;5033848;28;20577;-40
2022/06/13 12:02:41;;;;;;;3.97;3.63;;;;;;;26.64;48.31;93362.53;5026612;28;20022;-40
2022/06/13 12:05:13;;;;;;;4.78;3.80;;;;;;;26.78;48.00;93363.75;5027386;28;20100;-40
2022/06/13 12:07:40;;;;;;;5.13;3.78;;;;;;;26.80;47.86;93357.41;5027019;28;20028;-40
2022/06/13 12:10:18;;;;;;;4.75;4.35;;;;;;;26.83;47.89;93353.28;5024411;28;20044;-40
2022/06/13 12:12:45;;;;;;;4.67;4.27;;;;;;;26.90;46.67;93352.78;5029060;28;20029;-40
2022/06/13 12:15:12;;;;;;;11.68;4.70;;;;;;;26.99;47.92;93351.66;5046714;28;20085;-40
2022/06/13 12:17:41;;;;;;;5.35;4.05;;;;;;;27.18;48.11;93358.63;5046270;28;20506;-40